Terminal Aerodrome Forecast
Issued by NWS Twin Cities, MN

Home | Current Version | Previous Version | Graphics & Text | Print | Product List | Glossary On
Versions: 1 2 3 4 5 6 7 8 9 10 11 12 13 14 15 16 17 18 19 20 21
436
FTUS43 KMPX 190334 AAA
TAFEAU
TAF AMD
KEAU 190334Z 1904/1924 13003KT 3SM BR SKC
     FM190600 19003KT 3/4SM BR VV002
     FM191400 16006KT 2SM BR OVC005=

USA.gov is the U.S. government's official web portal to all federal, state and local government web resources and services.